Artvin — 9HA2782 — position and weather

sailwx.info

Track history (hours):
 
Tides and Currents Weather Stations Pressure Air Temp Water Temp Dewpoint Dewpoint Depression Visibility Wind Speed Wind Dir Waves Ship Positions

Artvin

Last reported at 2014-Sep-21 23:33 UTC. Time now 2014-Sep-22 00:13 UTC.
Position N 53°07' E 004°28'.

Length 229 m; draft 11.1 m.

Type: Cargo ship. MMSI: 215678000.

Date/timePositionNaut miles runAvg speedWind from/ knotsBaromVisibWave heightAir tempDewpointWater temp
2014-Sep-21 23:33N 53°07' E 004°28'1111.0
2014-Sep-21 22:33N 52°57' E 004°19'1111.5
2014-Sep-21 21:33N 52°47' E 004°10'1111.0
2014-Sep-21 20:33N 52°36' E 004°05'1010.0
2014-Sep-21 19:33N 52°30' E 004°18'9 9.5
2014-Sep-21 18:34N 52°28' E 004°33'3 3.2
2014-Sep-21 17:34N 52°28' E 004°38'7 6.7
2014-Sep-21 16:34N 52°25' E 004°49'1 0.7
2014-Sep-21 15:32N 52°25' E 004°49'0 0.0
2014-Sep-21 14:32N 52°25' E 004°49'0 0.0
2014-Sep-21 13:32N 52°25' E 004°49'0 0.0
2014-Sep-21 12:32N 52°25' E 004°49'0 0.0
2014-Sep-21 11:32N 52°25' E 004°49'0 0.0
2014-Sep-21 10:32N 52°25' E 004°49'0 0.0
2014-Sep-21 09:32N 52°25' E 004°49'0 0.0
2014-Sep-21 08:32N 52°25' E 004°49'0 0.0
2014-Sep-21 07:32N 52°25' E 004°49'0 0.0
2014-Sep-21 06:31N 52°25' E 004°49'0 0.0
2014-Sep-21 05:32N 52°25' E 004°49'0 0.0
2014-Sep-21 04:32N 52°25' E 004°49'0 0.0
2014-Sep-21 03:31N 52°25' E 004°49'0 0.0
2014-Sep-21 02:32N 52°25' E 004°49'0 0.0
2014-Sep-21 01:32N 52°25' E 004°49'0 0.0
2014-Sep-21 00:31N 52°25' E 004°49'0 0.0
2014-Sep-20 23:32N 52°25' E 004°49'0 0.0
2014-Sep-20 22:31N 52°25' E 004°49'0 0.0
2014-Sep-20 21:31N 52°25' E 004°49'0 0.0
2014-Sep-20 20:32N 52°25' E 004°49'0 0.0
2014-Sep-20 19:31N 52°25' E 004°49'0 0.0
2014-Sep-20 18:31N 52°25' E 004°49'0 0.0
2014-Sep-20 17:31N 52°25' E 004°49'0 0.0
2014-Sep-20 16:32N 52°25' E 004°49'0 0.0
2014-Sep-20 15:31N 52°25' E 004°49'0 0.0
2014-Sep-20 14:31N 52°25' E 004°49'0 0.0
2014-Sep-20 13:31N 52°25' E 004°49'0 0.0
2014-Sep-20 12:31N 52°25' E 004°49'0 0.0
2014-Sep-20 11:31N 52°25' E 004°49'0 0.0
2014-Sep-20 10:31N 52°25' E 004°49'0 0.0
2014-Sep-20 09:31N 52°25' E 004°49'0 0.0
2014-Sep-20 08:31N 52°25' E 004°49'0 0.0
2014-Sep-20 07:31N 52°25' E 004°49'0 0.0
2014-Sep-20 06:31N 52°25' E 004°49'0 0.0
2014-Sep-20 05:31N 52°25' E 004°49'0 0.0
2014-Sep-20 04:31N 52°25' E 004°49'0 0.0
2014-Sep-20 03:31N 52°25' E 004°49'0 0.0
2014-Sep-20 02:31N 52°25' E 004°49'0 0.0
2014-Sep-20 01:31N 52°25' E 004°49'0 0.0
2014-Sep-20 00:31N 52°25' E 004°49'0 0.0
2014-Sep-19 23:31N 52°25' E 004°49'0 0.0
2014-Sep-19 22:31N 52°25' E 004°49'0 0.0
2014-Sep-19 21:31N 52°25' E 004°49'0 0.0
2014-Sep-19 20:31N 52°25' E 004°49'0 0.0
2014-Sep-19 19:31N 52°25' E 004°49'0 0.0
2014-Sep-19 18:31N 52°25' E 004°49'0 0.0
2014-Sep-19 17:31N 52°25' E 004°49'0 0.0
2014-Sep-19 16:31N 52°25' E 004°49'0 0.0
2014-Sep-19 15:31N 52°25' E 004°49'0 0.0
2014-Sep-19 14:31N 52°25' E 004°49'0 0.0
2014-Sep-19 13:31N 52°25' E 004°49'0 0.0
2014-Sep-19 12:31N 52°25' E 004°49'0 0.0
2014-Sep-19 11:31N 52°25' E 004°49'0 0.1
2014-Sep-19 10:33N 52°25' E 004°49'5 5.0
2014-Sep-19 09:33N 52°27' E 004°41'4 4.1
2014-Sep-19 08:34N 52°28' E 004°35'9 9.4
2014-Sep-19 07:33N 52°28' E 004°20'1010.0
2014-Sep-19 06:33N 52°28' E 004°03'2 2.4
2014-Sep-19 05:31N 52°27' E 003°60'0 0.0
2014-Sep-19 04:28N 52°27' E 003°60'0 0.1
2014-Sep-19 03:31N 52°27' E 003°60'0 0.1
2014-Sep-19 02:31N 52°27' E 003°60'0 0.1
2014-Sep-19 01:31N 52°27' E 003°60'0 0.0
2014-Sep-19 00:31N 52°27' E 003°60'4 4.7
2014-Sep-18 23:33N 52°27' E 003°53'10 9.6
2014-Sep-18 22:33N 52°26' E 003°37'1110.7
2014-Sep-18 21:32N 52°27' E 003°19'2410.3
2014-Sep-18 19:13N 52°39' E 002°44'1110.2
2014-Sep-18 18:10N 52°49' E 002°38'711.8
2014-Sep-18 17:34N 52°56' E 002°38'1211.7
2014-Sep-18 16:33N 53°08' E 002°40'1211.6
2014-Sep-18 15:33N 53°18' E 002°47'1111.2
2014-Sep-18 14:33N 53°29' E 002°53'31 9.5
2014-Sep-18 11:20N 53°53' E 002°21'11 9.3
2014-Sep-18 10:07N 53°58' E 002°04'7 9.2
2014-Sep-18 09:19N 54°02' E 001°53'912.1
2014-Sep-18 08:33N 54°06' E 001°39'3311.0
2014-Sep-18 05:33N 54°22' E 000°49'10 9.4
2014-Sep-18 04:29N 54°27' E 000°34'10 9.6
2014-Sep-18 03:27N 54°31' E 000°19'9 9.9
2014-Sep-18 02:33N 54°35' E 000°05'1010.0
2014-Sep-18 01:33N 54°40' W 000°10'1010.3
2014-Sep-18 00:33N 54°44' W 000°27'1110.6
2014-Sep-17 23:33N 54°48' W 000°44'1010.1
2014-Sep-17 22:33N 54°55' W 000°57'1110.6
2014-Sep-17 21:33N 54°60' W 001°13'8 0.3
2014-Sep-16 21:33N 54°59' W 001°28'4 0.1
2014-Sep-15 05:33N 55°02' W 001°22'1 0.0
2014-Sep-13 17:30N 55°02' W 001°21'0 0.4
2014-Sep-13 16:27N 55°02' W 001°22'0 0.1
2014-Sep-13 15:32N 55°02' W 001°22'0 0.2
2014-Sep-13 14:23N 55°02' W 001°22'0 0.2
2014-Sep-13 13:34N 55°02' W 001°22'13010.0
2014-Sep-13 00:33N 57°12' W 001°24'9 9.5
2014-Sep-12 23:33N 57°22' W 001°25'9 8.8
2014-Sep-12 22:34N 57°31' W 001°25'8 8.1
2014-Sep-12 21:33N 57°39' W 001°27'8 7.7
2014-Sep-12 20:34N 57°46' W 001°30'10 8.1
2014-Sep-12 19:22N 57°56' W 001°32'119 7.4
2014-Sep-12 03:20N 59°36' W 003°35'  
Track history (hours):
 
Tides and Currents Weather Stations Pressure Air Temp Water Temp Dewpoint Dewpoint Depression Visibility Wind Speed Wind Dir Waves Ship Positions

Artvin

Last reported at 2014-Sep-21 23:33 UTC. Time now 2014-Sep-22 00:13 UTC.
Position N 53°07' E 004°28'.

Length 229 m; draft 11.1 m.

Type: Cargo ship. MMSI: 215678000.

Date/timePositionNaut miles runAvg speedWind from/ knotsBaromVisibWave heightAir tempDewpointWater temp
2014-Sep-21 23:33N 53°07' E 004°28'1111.0
2014-Sep-21 22:33N 52°57' E 004°19'1111.5
2014-Sep-21 21:33N 52°47' E 004°10'1111.0
2014-Sep-21 20:33N 52°36' E 004°05'1010.0
2014-Sep-21 19:33N 52°30' E 004°18'9 9.5
2014-Sep-21 18:34N 52°28' E 004°33'3 3.2
2014-Sep-21 17:34N 52°28' E 004°38'7 6.7
2014-Sep-21 16:34N 52°25' E 004°49'1 0.7
2014-Sep-21 15:32N 52°25' E 004°49'0 0.0
2014-Sep-21 14:32N 52°25' E 004°49'0 0.0
2014-Sep-21 13:32N 52°25' E 004°49'0 0.0
2014-Sep-21 12:32N 52°25' E 004°49'0 0.0
2014-Sep-21 11:32N 52°25' E 004°49'0 0.0
2014-Sep-21 10:32N 52°25' E 004°49'0 0.0
2014-Sep-21 09:32N 52°25' E 004°49'0 0.0
2014-Sep-21 08:32N 52°25' E 004°49'0 0.0
2014-Sep-21 07:32N 52°25' E 004°49'0 0.0
2014-Sep-21 06:31N 52°25' E 004°49'0 0.0
2014-Sep-21 05:32N 52°25' E 004°49'0 0.0
2014-Sep-21 04:32N 52°25' E 004°49'0 0.0
2014-Sep-21 03:31N 52°25' E 004°49'0 0.0
2014-Sep-21 02:32N 52°25' E 004°49'0 0.0
2014-Sep-21 01:32N 52°25' E 004°49'0 0.0
2014-Sep-21 00:31N 52°25' E 004°49'0 0.0
2014-Sep-20 23:32N 52°25' E 004°49'0 0.0
2014-Sep-20 22:31N 52°25' E 004°49'0 0.0
2014-Sep-20 21:31N 52°25' E 004°49'0 0.0
2014-Sep-20 20:32N 52°25' E 004°49'0 0.0
2014-Sep-20 19:31N 52°25' E 004°49'0 0.0
2014-Sep-20 18:31N 52°25' E 004°49'0 0.0
2014-Sep-20 17:31N 52°25' E 004°49'0 0.0
2014-Sep-20 16:32N 52°25' E 004°49'0 0.0
2014-Sep-20 15:31N 52°25' E 004°49'0 0.0
2014-Sep-20 14:31N 52°25' E 004°49'0 0.0
2014-Sep-20 13:31N 52°25' E 004°49'0 0.0
2014-Sep-20 12:31N 52°25' E 004°49'0 0.0
2014-Sep-20 11:31N 52°25' E 004°49'0 0.0
2014-Sep-20 10:31N 52°25' E 004°49'0 0.0
2014-Sep-20 09:31N 52°25' E 004°49'0 0.0
2014-Sep-20 08:31N 52°25' E 004°49'0 0.0
2014-Sep-20 07:31N 52°25' E 004°49'0 0.0
2014-Sep-20 06:31N 52°25' E 004°49'0 0.0
2014-Sep-20 05:31N 52°25' E 004°49'0 0.0
2014-Sep-20 04:31N 52°25' E 004°49'0 0.0
2014-Sep-20 03:31N 52°25' E 004°49'0 0.0
2014-Sep-20 02:31N 52°25' E 004°49'0 0.0
2014-Sep-20 01:31N 52°25' E 004°49'0 0.0
2014-Sep-20 00:31N 52°25' E 004°49'0 0.0
2014-Sep-19 23:31N 52°25' E 004°49'0 0.0
2014-Sep-19 22:31N 52°25' E 004°49'0 0.0
2014-Sep-19 21:31N 52°25' E 004°49'0 0.0
2014-Sep-19 20:31N 52°25' E 004°49'0 0.0
2014-Sep-19 19:31N 52°25' E 004°49'0 0.0
2014-Sep-19 18:31N 52°25' E 004°49'0 0.0
2014-Sep-19 17:31N 52°25' E 004°49'0 0.0
2014-Sep-19 16:31N 52°25' E 004°49'0 0.0
2014-Sep-19 15:31N 52°25' E 004°49'0 0.0
2014-Sep-19 14:31N 52°25' E 004°49'0 0.0
2014-Sep-19 13:31N 52°25' E 004°49'0 0.0
2014-Sep-19 12:31N 52°25' E 004°49'0 0.0
2014-Sep-19 11:31N 52°25' E 004°49'0 0.1
2014-Sep-19 10:33N 52°25' E 004°49'5 5.0
2014-Sep-19 09:33N 52°27' E 004°41'4 4.1
2014-Sep-19 08:34N 52°28' E 004°35'9 9.4
2014-Sep-19 07:33N 52°28' E 004°20'1010.0
2014-Sep-19 06:33N 52°28' E 004°03'2 2.4
2014-Sep-19 05:31N 52°27' E 003°60'0 0.0
2014-Sep-19 04:28N 52°27' E 003°60'0 0.1
2014-Sep-19 03:31N 52°27' E 003°60'0 0.1
2014-Sep-19 02:31N 52°27' E 003°60'0 0.1
2014-Sep-19 01:31N 52°27' E 003°60'0 0.0
2014-Sep-19 00:31N 52°27' E 003°60'4 4.7
2014-Sep-18 23:33N 52°27' E 003°53'10 9.6
2014-Sep-18 22:33N 52°26' E 003°37'1110.7
2014-Sep-18 21:32N 52°27' E 003°19'2410.3
2014-Sep-18 19:13N 52°39' E 002°44'1110.2
2014-Sep-18 18:10N 52°49' E 002°38'711.8
2014-Sep-18 17:34N 52°56' E 002°38'1211.7
2014-Sep-18 16:33N 53°08' E 002°40'1211.6
2014-Sep-18 15:33N 53°18' E 002°47'1111.2
2014-Sep-18 14:33N 53°29' E 002°53'31 9.5
2014-Sep-18 11:20N 53°53' E 002°21'11 9.3
2014-Sep-18 10:07N 53°58' E 002°04'7 9.2
2014-Sep-18 09:19N 54°02' E 001°53'912.1
2014-Sep-18 08:33N 54°06' E 001°39'3311.0
2014-Sep-18 05:33N 54°22' E 000°49'10 9.4
2014-Sep-18 04:29N 54°27' E 000°34'10 9.6
2014-Sep-18 03:27N 54°31' E 000°19'9 9.9
2014-Sep-18 02:33N 54°35' E 000°05'1010.0
2014-Sep-18 01:33N 54°40' W 000°10'1010.3
2014-Sep-18 00:33N 54°44' W 000°27'1110.6
2014-Sep-17 23:33N 54°48' W 000°44'1010.1
2014-Sep-17 22:33N 54°55' W 000°57'1110.6
2014-Sep-17 21:33N 54°60' W 001°13'8 0.3
2014-Sep-16 21:33N 54°59' W 001°28'4 0.1
2014-Sep-15 05:33N 55°02' W 001°22'1 0.0
2014-Sep-13 17:30N 55°02' W 001°21'0 0.4
2014-Sep-13 16:27N 55°02' W 001°22'0 0.1
2014-Sep-13 15:32N 55°02' W 001°22'0 0.2
2014-Sep-13 14:23N 55°02' W 001°22'0 0.2
2014-Sep-13 13:34N 55°02' W 001°22'13010.0
2014-Sep-13 00:33N 57°12' W 001°24'9 9.5
2014-Sep-12 23:33N 57°22' W 001°25'9 8.8
2014-Sep-12 22:34N 57°31' W 001°25'8 8.1
2014-Sep-12 21:33N 57°39' W 001°27'8 7.7
2014-Sep-12 20:34N 57°46' W 001°30'10 8.1
2014-Sep-12 19:22N 57°56' W 001°32'119 7.4
2014-Sep-12 03:20N 59°36' W 003°35'  

Dump ship's entire track history